Time;durP1;ratioP1;P1;durP2;ratioP2;P2;SDS_P1;SDS_P2;PMS_P1;PMS_P2;Temp;Humidity;BMP_temperature;BMP_pressure;BME280_temperature;BME280_humidity;BME280_pressure;Samples;Min_cycle;Max_cycle;Signal;HPM_P1;HPM_P2
2023/03/10 00:00:44;;;;;;;25.15;23.65;;;;;;;4.73;nan;97254.88;5011284;28;20057;-62
2023/03/10 00:03:10;;;;;;;23.20;21.77;;;;;;;4.48;nan;97241.78;5011500;28;20374;-62
2023/03/10 00:05:37;;;;;;;20.05;18.80;;;;;;;4.50;nan;97255.28;5011511;28;20053;-63
2023/03/10 00:08:03;;;;;;;20.42;19.23;;;;;;;4.28;nan;97229.44;5011170;28;20532;-63
2023/03/10 00:10:29;;;;;;;27.80;26.10;;;;;;;4.31;nan;97253.91;5009351;28;20123;-63
2023/03/10 00:12:55;;;;;;;23.03;21.63;;;;;;;4.23;nan;97246.44;5010252;28;20061;-62
2023/03/10 00:15:22;;;;;;;23.60;22.20;;;;;;;4.03;nan;97226.44;5010420;28;20695;-63
2023/03/10 00:17:54;;;;;;;23.08;21.73;;;;;;;3.96;nan;97224.03;5010875;28;20167;-64
2023/03/10 00:20:21;;;;;;;25.58;24.08;;;;;;;4.04;nan;97230.66;5008936;28;20497;-63
2023/03/10 00:22:47;;;;;;;21.35;20.13;;;;;;;4.13;nan;97234.75;5017230;28;20049;-63
2023/03/10 00:25:14;;;;;;;22.53;21.23;;;;;;;4.11;nan;97232.28;5012439;28;20045;-65
2023/03/10 00:27:40;;;;;;;20.00;18.75;;;;;;;4.18;nan;97224.53;5010968;28;20088;-63
2023/03/10 00:30:06;;;;;;;23.57;22.17;;;;;;;4.09;nan;97205.25;5009426;28;20730;-63
2023/03/10 00:32:34;;;;;;;20.15;18.98;;;;;;;4.28;nan;97218.47;5010128;28;20042;-64
2023/03/10 00:35:01;;;;;;;20.63;19.42;;;;;;;4.30;nan;97215.03;5010148;28;20102;-66
2023/03/10 00:37:26;;;;;;;23.02;21.63;;;;;;;4.16;nan;97181.44;5011391;28;20045;-62
2023/03/10 00:39:52;;;;;;;24.30;22.80;;;;;;;4.30;nan;97207.41;5011691;28;20914;-61
2023/03/10 00:42:19;;;;;;;21.63;20.33;;;;;;;4.34;nan;97201.44;5009873;28;20079;-64
2023/03/10 00:44:45;;;;;;;20.95;19.73;;;;;;;4.42;nan;97202.13;5010269;28;20038;-63
2023/03/10 00:47:10;;;;;;;21.17;19.93;;;;;;;4.16;nan;97153.53;5010519;28;20419;-63
2023/03/10 00:49:36;;;;;;;18.73;17.57;;;;;;;4.33;nan;97199.75;5017840;28;21025;-62
2023/03/10 00:52:02;;;;;;;22.37;21.07;;;;;;;4.26;nan;97193.13;5010112;28;20052;-64
2023/03/10 00:54:27;;;;;;;19.20;18.13;;;;;;;4.17;nan;97187.34;5010929;28;20560;-63
2023/03/10 00:56:53;;;;;;;22.03;20.70;;;;;;;4.15;nan;97182.31;5010576;28;20350;-62
2023/03/10 00:59:19;;;;;;;19.90;18.70;;;;;;;4.09;nan;97175.66;5017447;28;20075;-62
2023/03/10 01:01:45;;;;;;;23.23;21.77;;;;;;;4.10;nan;97168.88;5008306;28;20050;-63
2023/03/10 01:04:17;;;;;;;23.47;22.03;;;;;;;3.88;nan;97142.22;5025973;28;20517;-62
2023/03/10 01:06:46;;;;;;;19.55;18.40;;;;;;;4.03;nan;97157.19;5010321;28;20046;-62
2023/03/10 01:09:13;;;;;;;20.92;19.70;;;;;;;4.17;nan;97160.31;5018309;28;20050;-62
2023/03/10 01:11:39;;;;;;;18.98;17.80;;;;;;;4.05;nan;97127.56;5010281;28;20046;-62
2023/03/10 01:14:11;;;;;;;21.80;20.50;;;;;;;4.06;nan;97142.75;5017827;28;20460;-61
2023/03/10 01:16:37;;;;;;;22.40;21.08;;;;;;;4.07;nan;97141.06;5009503;28;20428;-63
2023/03/10 01:19:02;;;;;;;21.50;20.13;;;;;;;4.11;nan;97127.47;5008978;28;20041;-63
2023/03/10 01:21:33;;;;;;;21.00;19.73;;;;;;;4.05;nan;97120.78;5019269;28;20068;-63
2023/03/10 01:24:00;;;;;;;21.95;20.63;;;;;;;4.11;nan;97125.75;5012368;28;20045;-64
2023/03/10 01:26:26;;;;;;;22.02;20.63;;;;;;;4.16;nan;97125.66;5009434;28;20042;-63
2023/03/10 01:28:52;;;;;;;23.77;22.20;;;;;;;4.00;nan;97097.19;5009861;28;20084;-62
2023/03/10 01:31:18;;;;;;;21.30;19.90;;;;;;;4.12;nan;97103.75;5016090;28;20042;-61
2023/03/10 01:33:44;;;;;;;24.37;22.67;;;;;;;3.96;nan;97093.06;5012828;28;20495;-60
2023/03/10 01:36:22;;;;;;;18.92;17.65;;;;;;;3.97;nan;97101.50;5009318;28;20087;-63
2023/03/10 01:38:48;;;;;;;21.85;20.42;;;;;;;3.94;nan;97099.03;5010289;28;20042;-63
2023/03/10 01:41:16;;;;;;;26.95;25.23;;;;;;;3.90;nan;97084.72;5005334;28;20052;-61
2023/03/10 01:43:44;;;;;;;29.88;27.90;;;;;;;3.90;nan;97084.72;4997216;28;20618;-62
2023/03/10 01:46:39;;;;;;;26.90;25.23;;;;;;;3.79;nan;97084.06;5015190;28;20065;-63
2023/03/10 01:49:40;;;;;;;20.98;19.60;;;;;;;3.73;nan;97079.97;5024406;28;20049;-63
2023/03/10 01:52:18;;;;;;;21.95;20.50;;;;;;;3.69;nan;97071.53;5009277;28;20049;-63
2023/03/10 01:54:51;;;;;;;22.05;20.67;;;;;;;3.44;nan;97046.66;4993502;28;20049;-63
2023/03/10 01:57:22;;;;;;;24.95;23.35;;;;;;;3.47;nan;97062.66;5014798;28;20038;-62
2023/03/10 01:59:49;;;;;;;23.80;22.30;;;;;;;3.43;nan;97057.66;5005962;28;20068;-63
2023/03/10 02:02:16;;;;;;;26.77;24.98;;;;;;;3.45;nan;97049.16;5006794;28;20051;-60
2023/03/10 02:04:44;;;;;;;21.17;19.88;;;;;;;3.46;nan;97030.56;5008432;28;20060;-63
2023/03/10 02:07:12;;;;;;;22.35;20.88;;;;;;;3.65;nan;97042.06;5009515;28;20041;-63
2023/03/10 02:09:41;;;;;;;22.33;20.88;;;;;;;3.49;nan;97007.72;5009401;28;20334;-63
2023/03/10 02:12:09;;;;;;;23.15;21.73;;;;;;;3.57;nan;97038.81;5006126;28;20164;-61
2023/03/10 02:14:36;;;;;;;20.45;19.10;;;;;;;3.52;nan;97022.06;5010296;28;20151;-62
2023/03/10 02:17:06;;;;;;;21.23;19.90;;;;;;;3.41;nan;97019.69;5011601;28;20464;-62
2023/03/10 02:19:53;;;;;;;20.13;18.75;;;;;;;3.38;nan;97022.28;5008618;28;20460;-62
2023/03/10 02:22:19;;;;;;;20.67;19.30;;;;;;;3.31;nan;97017.34;5007589;28;20414;-61
2023/03/10 02:24:58;;;;;;;24.37;22.67;;;;;;;3.14;nan;96997.38;5007584;28;20061;-62
2023/03/10 02:27:28;;;;;;;20.60;19.25;;;;;;;3.19;nan;97014.13;5010199;28;20049;-63
2023/03/10 02:30:09;;;;;;;20.30;18.90;;;;;;;3.37;nan;97002.88;5009709;28;20049;-62
2023/03/10 02:32:43;;;;;;;23.27;21.75;;;;;;;3.30;nan;96983.59;5007336;28;20048;-62
2023/03/10 02:35:09;;;;;;;19.55;18.27;;;;;;;3.41;nan;96996.88;5023340;28;20049;-61
2023/03/10 02:37:42;;;;;;;19.63;18.40;;;;;;;3.26;nan;96973.53;5006775;28;20037;-62
2023/03/10 02:40:47;;;;;;;20.40;19.07;;;;;;;3.33;nan;96987.75;5008553;28;20472;-66
2023/03/10 02:43:27;;;;;;;23.90;22.30;;;;;;;3.20;nan;96977.00;4989708;28;20634;-61
2023/03/10 02:46:05;;;;;;;20.83;19.45;;;;;;;3.05;nan;96960.38;5022988;28;20132;-61
2023/03/10 02:48:34;;;;;;;21.92;20.42;;;;;;;3.23;nan;96964.28;5023305;28;20042;-62
2023/03/10 02:51:08;;;;;;;25.02;23.45;;;;;;;3.38;nan;96958.97;5020982;28;20056;-62
2023/03/10 02:53:33;;;;;;;24.10;22.38;;;;;;;3.39;nan;96939.53;5016286;28;20045;-61
2023/03/10 02:55:59;;;;;;;20.53;19.23;;;;;;;3.28;nan;96931.28;5006685;28;20069;-62
2023/03/10 02:58:27;;;;;;;19.00;17.80;;;;;;;3.38;nan;96958.97;5008916;28;20053;-63
2023/03/10 03:00:54;;;;;;;23.92;22.17;;;;;;;3.22;nan;96960.91;5007291;28;20068;-62
2023/03/10 03:03:21;;;;;;;21.67;20.15;;;;;;;3.10;nan;96947.59;5010866;28;20137;-62
2023/03/10 03:05:48;;;;;;;20.52;19.20;;;;;;;3.03;nan;96946.06;5012506;28;20080;-62
2023/03/10 03:08:16;;;;;;;22.38;20.88;;;;;;;2.92;nan;96950.47;5028524;28;20069;-61
2023/03/10 03:10:42;;;;;;;21.45;20.00;;;;;;;2.80;nan;96948.13;5012298;28;20041;-62
2023/03/10 03:13:08;;;;;;;22.20;20.65;;;;;;;2.66;nan;96936.53;5021923;28;20522;-62
2023/03/10 03:15:35;;;;;;;23.00;21.47;;;;;;;2.70;nan;96952.50;5026748;28;20049;-62
2023/03/10 03:18:01;;;;;;;21.08;19.67;;;;;;;2.58;nan;96940.88;5017871;28;20040;-65
2023/03/10 03:20:29;;;;;;;24.02;22.40;;;;;;;2.65;nan;96934.84;5014025;28;20704;-62
2023/03/10 03:22:58;;;;;;;21.27;19.83;;;;;;;2.69;nan;96918.75;5013663;28;20139;-62
2023/03/10 03:25:26;;;;;;;19.52;18.13;;;;;;;2.78;nan;96927.06;5010831;28;20443;-63
2023/03/10 03:27:53;;;;;;;22.73;21.08;;;;;;;2.59;nan;96901.25;5011989;28;20034;-63
2023/03/10 03:30:25;;;;;;;21.45;19.92;;;;;;;2.42;nan;96891.34;5014517;28;20056;-62
2023/03/10 03:32:52;;;;;;;19.58;18.25;;;;;;;2.67;nan;96912.88;5016346;28;20072;-62
2023/03/10 03:35:27;;;;;;;20.23;18.85;;;;;;;2.57;nan;96921.47;5014861;28;20132;-62
2023/03/10 03:37:53;;;;;;;;;;;;;;;2.62;nan;96901.19;5013401;28;20112;-62
2023/03/10 03:40:22;;;;;;;17.58;16.40;;;;;;;2.58;nan;96887.75;5010298;28;19972;-61
2023/03/10 03:42:51;;;;;;;19.17;17.92;;;;;;;2.51;nan;96865.09;5013775;28;20053;-62
2023/03/10 03:45:19;;;;;;;20.98;19.55;;;;;;;2.48;nan;96871.03;5013580;28;20045;-62
2023/03/10 03:47:46;;;;;;;19.65;18.25;;;;;;;2.55;nan;96881.88;5012139;28;20033;-62
2023/03/10 03:50:15;;;;;;;22.42;20.92;;;;;;;2.47;nan;96883.69;5027193;28;20561;-62
2023/03/10 03:52:42;;;;;;;18.85;17.55;;;;;;;2.37;nan;96877.97;5013815;28;20409;-63
2023/03/10 03:55:10;;;;;;;18.70;17.42;;;;;;;2.19;nan;96856.31;5013685;28;20054;-62
2023/03/10 03:57:38;;;;;;;19.40;18.00;;;;;;;2.18;nan;96866.44;5014451;28;20038;-62
2023/03/10 04:00:07;;;;;;;22.77;21.15;;;;;;;2.12;nan;96869.88;5014131;28;20087;-62
2023/03/10 04:02:38;;;;;;;20.23;18.80;;;;;;;2.15;nan;96862.28;5013914;28;20053;-60
2023/03/10 04:05:06;;;;;;;18.98;17.67;;;;;;;2.10;nan;96855.59;5014570;28;20457;-62
2023/03/10 04:07:32;;;;;;;18.70;17.40;;;;;;;2.07;nan;96845.53;5010343;28;20107;-64
2023/03/10 04:09:58;;;;;;;20.98;19.55;;;;;;;2.05;nan;96844.72;5020056;28;20059;-61
2023/03/10 04:12:26;;;;;;;19.40;18.03;;;;;;;2.03;nan;96846.44;5011930;28;20388;-60
2023/03/10 04:14:52;;;;;;;19.83;18.45;;;;;;;1.88;nan;96821.38;5010052;28;20136;-62
2023/03/10 04:17:18;;;;;;;21.30;19.90;;;;;;;1.84;nan;96828.19;5010429;28;20072;-61
2023/03/10 04:19:45;;;;;;;19.75;18.40;;;;;;;1.88;nan;96821.38;5009965;28;20136;-61
2023/03/10 04:22:14;;;;;;;19.58;18.17;;;;;;;2.01;nan;96817.81;5012124;28;20245;-62
2023/03/10 04:24:41;;;;;;;19.77;18.48;;;;;;;2.41;nan;96810.47;5011014;28;20536;-61
2023/03/10 04:27:08;;;;;;;21.20;19.70;;;;;;;2.26;nan;96806.47;5026514;28;20523;-61
2023/03/10 04:29:38;;;;;;;18.83;17.48;;;;;;;1.93;nan;96787.63;4996663;28;20046;-62
2023/03/10 04:32:04;;;;;;;19.55;18.13;;;;;;;2.00;nan;96799.31;5008607;28;20080;-62
2023/03/10 04:34:31;;;;;;;19.77;18.30;;;;;;;2.01;nan;96797.63;5011147;28;20084;-61
2023/03/10 04:36:57;;;;;;;20.20;18.48;;;;;;;1.96;nan;96784.22;5010417;28;20077;-63
2023/03/10 04:39:23;;;;;;;20.77;19.27;;;;;;;1.96;nan;96784.22;5011890;28;20045;-62
2023/03/10 04:41:49;;;;;;;17.52;16.35;;;;;;;1.93;nan;96785.09;5010885;28;20053;-62
2023/03/10 04:44:16;;;;;;;21.90;20.33;;;;;;;1.96;nan;96785.03;5017322;28;20494;-62
2023/03/10 04:46:42;;;;;;;18.30;16.98;;;;;;;2.04;nan;96774.81;5028172;28;20488;-63
2023/03/10 04:49:08;;;;;;;20.87;19.47;;;;;;;2.08;nan;96774.75;5013273;28;20100;-61
2023/03/10 04:51:34;;;;;;;19.90;18.47;;;;;;;2.52;nan;96758.84;5011760;28;20243;-61
2023/03/10 04:54:00;;;;;;;18.63;17.33;;;;;;;2.46;nan;96738.72;5013954;28;20469;-65
2023/03/10 04:56:29;;;;;;;19.30;17.92;;;;;;;2.43;nan;96746.34;5017581;28;20030;-62
2023/03/10 04:58:55;;;;;;;20.57;19.13;;;;;;;2.18;nan;96752.69;4965844;28;1234177;-62
2023/03/10 05:01:22;;;;;;;18.80;17.48;;;;;;;1.90;nan;96732.09;5019967;28;20042;-60
2023/03/10 05:03:52;;;;;;;21.35;19.88;;;;;;;1.76;nan;96727.25;4996319;28;20141;-61
2023/03/10 05:06:20;;;;;;;17.47;16.27;;;;;;;1.86;nan;96750.69;5012021;28;20042;-62
2023/03/10 05:09:03;;;;;;;20.50;19.13;;;;;;;1.70;nan;96734.91;5026507;28;20041;-62
2023/03/10 05:11:31;;;;;;;18.75;17.50;;;;;;;1.77;nan;96746.59;5009986;28;20038;-62
2023/03/10 05:13:56;;;;;;;18.52;17.20;;;;;;;1.75;nan;96745.78;5011277;28;20497;-62
2023/03/10 05:16:22;;;;;;;20.55;19.20;;;;;;;1.67;nan;96729.91;5009035;28;20045;-62
2023/03/10 05:18:49;;;;;;;21.35;19.95;;;;;;;1.66;nan;96735.81;5013844;28;20461;-62
2023/03/10 05:21:20;;;;;;;17.50;16.42;;;;;;;1.66;nan;96735.81;5009415;28;20041;-62
2023/03/10 05:23:46;;;;;;;18.85;17.63;;;;;;;1.62;nan;96730.81;5009208;28;20063;-60
2023/03/10 05:26:13;;;;;;;17.25;16.13;;;;;;;1.80;nan;96728.03;5018522;28;20580;-61
2023/03/10 05:28:39;;;;;;;19.50;18.20;;;;;;;1.87;nan;96719.50;4996046;28;20052;-61
2023/03/10 05:31:14;;;;;;;19.13;17.95;;;;;;;1.88;nan;96716.13;5008825;28;20294;-61
2023/03/10 05:33:42;;;;;;;22.27;20.60;;;;;;;1.73;nan;96696.16;5008890;28;20049;-61
2023/03/10 05:36:11;;;;;;;18.30;17.17;;;;;;;1.78;nan;96715.41;5008463;28;20475;-61
2023/03/10 05:38:38;;;;;;;18.38;17.15;;;;;;;1.67;nan;96694.56;5010506;28;20045;-62
2023/03/10 05:41:08;;;;;;;19.08;17.83;;;;;;;1.75;nan;96704.53;5017771;28;20057;-60
2023/03/10 05:43:34;;;;;;;18.83;17.60;;;;;;;1.69;nan;96700.44;5015490;28;20528;-61
2023/03/10 05:46:01;;;;;;;19.65;18.45;;;;;;;1.44;nan;96653.69;5018682;28;20054;-65
2023/03/10 05:48:30;;;;;;;21.85;20.30;;;;;;;1.56;nan;96675.38;4993532;28;20099;-61
2023/03/10 05:51:03;;;;;;;19.42;18.17;;;;;;;1.69;nan;96680.22;5007507;28;20564;-61
2023/03/10 05:53:30;;;;;;;22.58;20.98;;;;;;;1.61;nan;96661.00;5010778;28;20056;-60
2023/03/10 05:55:57;;;;;;;20.00;18.65;;;;;;;1.73;nan;96669.22;5006295;28;20045;-60
2023/03/10 05:58:24;;;;;;;18.60;17.33;;;;;;;1.77;nan;96667.47;5009150;28;20049;-60
2023/03/10 06:00:51;;;;;;;18.40;17.25;;;;;;;1.80;nan;96673.28;5007273;28;20139;-60
2023/03/10 06:03:18;;;;;;;16.45;15.45;;;;;;;1.98;nan;96666.28;5007902;28;20046;-61
2023/03/10 06:05:43;;;;;;;22.60;21.17;;;;;;;2.04;nan;96671.22;5009928;28;20413;-57
2023/03/10 06:08:09;;;;;;;21.03;19.53;;;;;;;2.12;nan;96659.28;5009547;28;20050;-62
2023/03/10 06:10:35;;;;;;;26.60;24.83;;;;;;;2.16;nan;96660.91;5007037;28;20045;-60
2023/03/10 06:13:01;;;;;;;22.83;21.37;;;;;;;2.25;nan;96655.66;5005537;28;20277;-61
2023/03/10 06:15:27;;;;;;;21.20;19.73;;;;;;;2.34;nan;96650.44;5006631;28;20672;-61
2023/03/10 06:17:52;;;;;;;23.00;21.37;;;;;;;2.42;nan;96641.00;5008242;28;20119;-58
2023/03/10 06:20:18;;;;;;;25.20;23.53;;;;;;;2.57;nan;96644.97;5005657;28;20575;-58
2023/03/10 06:22:44;;;;;;;21.83;20.37;;;;;;;2.60;nan;96640.66;5007476;28;20044;-57
2023/03/10 06:25:09;;;;;;;24.23;22.63;;;;;;;2.84;nan;96656.22;5005192;28;20049;-60
2023/03/10 06:27:35;;;;;;;18.87;17.63;;;;;;;2.96;nan;96659.34;5009027;28;20100;-58
2023/03/10 06:30:01;;;;;;;21.87;20.47;;;;;;;3.02;nan;96633.88;5006350;28;20037;-58
2023/03/10 06:32:27;;;;;;;21.77;20.30;;;;;;;3.30;nan;96656.09;5004476;28;20041;-58
2023/03/10 06:34:52;;;;;;;20.83;19.50;;;;;;;3.43;nan;96655.78;5004630;28;20132;-57
2023/03/10 06:37:18;;;;;;;17.17;16.13;;;;;;;3.63;nan;96650.25;5008008;28;20420;-59
2023/03/10 06:39:44;;;;;;;18.30;17.17;;;;;;;3.79;nan;96648.16;5007358;28;20154;-59
2023/03/10 06:42:09;;;;;;;17.03;16.03;;;;;;;3.93;nan;96651.19;5006760;28;20042;-57
2023/03/10 06:44:35;;;;;;;17.33;16.23;;;;;;;4.12;nan;96637.19;5007281;28;20582;-60
2023/03/10 06:47:03;;;;;;;18.43;17.37;;;;;;;4.23;nan;96645.34;5009354;28;20492;-58
2023/03/10 06:49:31;;;;;;;18.42;17.33;;;;;;;4.32;nan;96642.59;5008221;28;20030;-58
2023/03/10 06:51:57;;;;;;;16.63;15.52;;;;;;;4.48;nan;96632.84;5008475;28;20056;-57
2023/03/10 06:54:23;;;;;;;18.55;17.42;;;;;;;4.62;nan;96629.94;5009388;28;20053;-58
2023/03/10 06:56:49;;;;;;;19.37;18.20;;;;;;;4.76;nan;96630.38;5007397;28;20046;-59
2023/03/10 06:59:15;;;;;;;19.60;18.33;;;;;;;4.91;nan;96623.16;5009844;28;20104;-57
2023/03/10 07:01:41;;;;;;;20.97;19.67;;;;;;;5.06;nan;96617.63;5009102;28;20572;-58
2023/03/10 07:04:07;;;;;;;22.50;21.08;;;;;;;5.29;nan;96623.75;5005356;28;20491;-58
2023/03/10 07:06:32;;;;;;;18.23;17.17;;;;;;;5.44;nan;96616.47;5007087;28;20077;-57
2023/03/10 07:08:58;;;;;;;19.37;18.20;;;;;;;5.57;nan;96611.81;5008073;28;20604;-58
2023/03/10 07:11:25;;;;;;;19.23;18.07;;;;;;;5.75;nan;96600.25;5007722;28;20144;-57
2023/03/10 07:13:51;;;;;;;17.35;16.40;;;;;;;6.02;nan;96607.00;5007355;28;20372;-57
2023/03/10 07:16:17;;;;;;;30.17;28.48;;;;;;;6.23;nan;96611.38;5008672;28;20046;-59
2023/03/10 07:18:43;;;;;;;20.83;19.63;;;;;;;6.37;nan;96598.13;5007803;28;20056;-57
2023/03/10 07:21:11;;;;;;;23.10;21.60;;;;;;;6.56;nan;96596.63;5005418;28;20049;-59
2023/03/10 07:23:38;;;;;;;21.63;20.38;;;;;;;6.76;nan;96595.88;5008070;28;20072;-57
2023/03/10 07:26:07;;;;;;;22.23;20.92;;;;;;;6.98;nan;96591.66;5006175;28;20061;-57
2023/03/10 07:28:36;;;;;;;26.88;25.25;;;;;;;7.05;nan;96582.06;5002615;28;20191;-58
2023/03/10 07:31:08;;;;;;;22.48;21.05;;;;;;;7.31;nan;96585.28;5006949;28;20125;-67
2023/03/10 07:33:34;;;;;;;26.08;24.52;;;;;;;7.50;nan;96582.84;5004673;28;20038;-61
2023/03/10 07:36:11;;;;;;;27.77;26.35;;;;;;;7.76;nan;96580.09;5004577;28;20053;-60
2023/03/10 07:38:36;;;;;;;24.67;23.17;;;;;;;7.95;nan;96582.69;5006700;28;20041;-60
2023/03/10 07:41:09;;;;;;;25.33;23.90;;;;;;;8.12;nan;96574.34;5003053;28;20099;-61
2023/03/10 07:43:35;;;;;;;26.48;24.90;;;;;;;8.32;nan;96573.53;5005392;28;20506;-61
2023/03/10 07:46:05;;;;;;;24.93;23.53;;;;;;;8.52;nan;96565.84;5004779;28;20073;-61
2023/03/10 07:48:31;;;;;;;21.95;20.67;;;;;;;8.70;nan;96560.72;5005019;28;20318;-58
2023/03/10 07:50:58;;;;;;;27.08;25.52;;;;;;;8.81;nan;96565.38;5005582;28;20049;-59
2023/03/10 07:53:24;;;;;;;23.67;22.27;;;;;;;9.00;nan;96555.13;5007558;28;20416;-62
2023/03/10 07:55:50;;;;;;;27.20;25.67;;;;;;;9.18;nan;96554.28;5006964;28;20048;-60
2023/03/10 07:58:16;;;;;;;23.77;22.47;;;;;;;9.35;nan;96546.63;5007994;28;20038;-59
2023/03/10 08:00:41;;;;;;;22.53;21.30;;;;;;;9.46;nan;96531.59;5008185;28;20139;-59
2023/03/10 08:03:08;;;;;;;25.23;23.83;;;;;;;9.73;nan;96551.63;5010104;28;20468;-59
2023/03/10 08:05:41;;;;;;;23.30;22.10;;;;;;;9.68;nan;96518.59;5008087;28;20627;-60
2023/03/10 08:08:07;;;;;;;20.45;19.45;;;;;;;10.01;nan;96547.63;5010876;28;20037;-59
2023/03/10 08:10:33;;;;;;;22.60;21.45;;;;;;;10.18;nan;96543.44;5010293;28;20110;-60
2023/03/10 08:12:59;;;;;;;25.27;23.87;;;;;;;10.31;nan;96545.28;5011202;28;20045;-60
2023/03/10 08:15:25;;;;;;;24.43;23.17;;;;;;;10.52;nan;96535.69;5007288;28;20283;-60
2023/03/10 08:17:51;;;;;;;23.10;21.87;;;;;;;10.67;nan;96527.16;5007106;28;20077;-60
2023/03/10 08:20:18;;;;;;;25.20;23.93;;;;;;;10.73;nan;96539.66;5004997;28;20829;-61
2023/03/10 08:22:43;;;;;;;25.67;24.33;;;;;;;10.89;nan;96524.28;5006031;28;20813;-60
2023/03/10 08:25:11;;;;;;;26.73;25.43;;;;;;;10.96;nan;96539.25;5007853;28;20296;-60
2023/03/10 08:27:37;;;;;;;25.40;24.13;;;;;;;10.95;nan;96531.63;5005246;28;20071;-60
2023/03/10 08:30:04;;;;;;;25.73;24.47;;;;;;;11.17;nan;96513.34;5008350;28;20293;-60
2023/03/10 08:32:29;;;;;;;27.23;25.83;;;;;;;11.45;nan;96521.19;5005117;28;20293;-59
2023/03/10 08:34:55;;;;;;;24.30;23.03;;;;;;;11.59;nan;96515.25;5007138;28;20307;-59
2023/03/10 08:37:21;;;;;;;24.23;23.07;;;;;;;11.86;nan;96529.09;5006855;28;20038;-60
2023/03/10 08:39:48;;;;;;;24.30;23.10;;;;;;;12.00;nan;96530.88;5012636;28;20120;-60
2023/03/10 08:42:14;;;;;;;26.77;25.37;;;;;;;12.16;nan;96522.19;5007151;28;20173;-60
2023/03/10 08:44:40;;;;;;;25.83;24.57;;;;;;;12.24;nan;96532.00;5006467;28;20688;-59
2023/03/10 08:47:07;;;;;;;30.93;29.23;;;;;;;12.15;nan;96525.66;5007177;28;20296;-59
2023/03/10 08:49:32;;;;;;;23.67;22.57;;;;;;;12.23;nan;96528.59;5009302;28;20042;-59
2023/03/10 08:51:59;;;;;;;26.97;25.57;;;;;;;12.09;nan;96527.78;5006562;28;20284;-60
2023/03/10 08:54:25;;;;;;;32.67;30.90;;;;;;;11.74;nan;96511.84;5006088;28;20045;-60
2023/03/10 08:56:51;;;;;;;28.70;27.17;;;;;;;11.85;nan;96535.97;5009805;28;20601;-60
2023/03/10 08:59:18;;;;;;;23.00;21.90;;;;;;;11.73;nan;96520.47;5018576;28;20488;-59
2023/03/10 09:01:44;;;;;;;24.93;23.80;;;;;;;11.52;nan;96530.16;5008957;28;20380;-60
2023/03/10 09:04:10;;;;;;;24.13;22.97;;;;;;;11.54;nan;96514.69;5007963;28;20412;-58
2023/03/10 09:06:37;;;;;;;23.77;22.60;;;;;;;11.36;nan;96517.38;5025154;28;20824;-59
2023/03/10 09:09:04;;;;;;;28.17;26.77;;;;;;;11.63;nan;96524.41;5008524;28;20300;-58
2023/03/10 09:11:33;;;;;;;27.93;26.53;;;;;;;11.72;nan;96534.19;4996882;28;20312;-60
2023/03/10 09:14:00;;;;;;;22.57;21.50;;;;;;;12.02;nan;96539.31;5008605;28;20797;-59
2023/03/10 09:16:27;;;;;;;25.73;24.53;;;;;;;12.17;nan;96520.44;5009548;28;20374;-59
2023/03/10 09:18:54;;;;;;;24.90;23.60;;;;;;;12.41;nan;96531.81;5011565;28;20365;-59
2023/03/10 09:21:20;;;;;;;29.47;27.93;;;;;;;12.61;nan;96520.34;5008138;28;20303;-58
2023/03/10 09:23:48;;;;;;;29.03;27.50;;;;;;;12.99;nan;96531.66;5005397;28;20301;-59
2023/03/10 09:26:14;;;;;;;25.53;24.20;;;;;;;13.26;nan;96540.28;5006858;28;20085;-59
2023/03/10 09:28:41;;;;;;;27.77;26.30;;;;;;;13.33;nan;96525.25;5004380;28;20296;-59
2023/03/10 09:31:08;;;;;;;28.43;26.93;;;;;;;13.59;nan;96532.16;5020736;28;20299;-59
2023/03/10 09:33:34;;;;;;;28.50;27.03;;;;;;;13.77;nan;96531.88;5005681;28;20335;-59
2023/03/10 09:36:02;;;;;;;31.27;29.67;;;;;;;13.91;nan;96527.50;5004843;28;20743;-60
2023/03/10 09:38:28;;;;;;;27.60;26.17;;;;;;;14.04;nan;96530.06;5008700;28;20045;-60
2023/03/10 09:41:12;;;;;;;26.13;24.73;;;;;;;14.21;nan;96508.34;5008712;28;20692;-59
2023/03/10 09:43:44;;;;;;;27.63;26.17;;;;;;;14.45;nan;96510.09;5004752;28;20870;-59
2023/03/10 09:46:16;;;;;;;30.00;28.37;;;;;;;14.71;nan;96528.94;5006474;28;20287;-60
2023/03/10 09:48:57;;;;;;;26.03;24.63;;;;;;;14.89;nan;96525.09;5016722;28;20284;-61
2023/03/10 09:51:26;;;;;;;31.50;29.87;;;;;;;15.00;nan;96524.31;5003307;28;20296;-59
2023/03/10 09:54:39;;;;;;;28.20;26.70;;;;;;;15.13;nan;96525.13;5005576;28;20299;-59
2023/03/10 09:57:19;;;;;;;27.60;26.20;;;;;;;15.07;nan;96513.47;4993233;28;20395;-60
2023/03/10 09:59:50;;;;;;;28.33;26.90;;;;;;;15.32;nan;96507.38;4993858;28;20308;-59
2023/03/10 10:02:24;;;;;;;31.07;29.47;;;;;;;15.48;nan;96501.94;4991233;28;20300;-59
2023/03/10 10:04:58;;;;;;;25.17;23.85;;;;;;;15.66;nan;96516.09;4994304;28;20823;-59
2023/03/10 10:07:28;;;;;;;28.60;27.10;;;;;;;15.67;nan;96497.09;4995692;28;20069;-59
2023/03/10 10:10:03;;;;;;;33.60;31.87;;;;;;;15.95;nan;96508.81;4994747;28;20322;-59
2023/03/10 10:12:28;;;;;;;35.63;33.80;;;;;;;15.94;nan;96502.81;4993045;28;20459;-60
2023/03/10 10:15:05;;;;;;;27.17;25.73;;;;;;;16.04;nan;96512.47;4995933;28;20054;-59
2023/03/10 10:17:46;;;;;;;33.77;31.97;;;;;;;15.85;nan;96493.16;4993153;28;20803;-60
2023/03/10 10:20:21;;;;;;;30.47;28.87;;;;;;;16.01;nan;96498.00;4994012;28;20315;-60
2023/03/10 10:22:47;;;;;;;31.77;30.15;;;;;;;16.35;nan;96507.47;4993234;28;20296;-61
2023/03/10 10:25:21;;;;;;;40.73;38.63;;;;;;;16.28;nan;96501.13;4992434;28;20060;-60
2023/03/10 10:27:51;;;;;;;26.00;24.67;;;;;;;16.41;nan;96498.41;4999595;28;20065;-60
2023/03/10 10:30:35;;;;;;;32.13;30.43;;;;;;;16.39;nan;96500.28;5003060;28;20037;-60
2023/03/10 10:33:12;;;;;;;29.53;28.00;;;;;;;16.40;nan;96486.41;5012326;28;20308;-61
2023/03/10 10:36:01;;;;;;;36.10;34.17;;;;;;;16.59;nan;96499.59;5008811;28;20974;-60
2023/03/10 10:38:30;;;;;;;31.13;29.53;;;;;;;16.66;nan;96489.63;5005861;28;20795;-60
2023/03/10 10:41:03;;;;;;;41.17;39.27;;;;;;;16.48;nan;96491.00;5006753;28;20419;-61
2023/03/10 10:43:30;;;;;;;32.03;30.33;;;;;;;16.55;nan;96493.00;5008444;28;20299;-59
2023/03/10 10:46:03;;;;;;;33.07;31.23;;;;;;;16.74;nan;96477.75;5017449;28;20277;-60
2023/03/10 10:48:38;;;;;;;32.57;30.93;;;;;;;16.96;nan;96461.34;5017838;28;20625;-61
2023/03/10 10:51:16;;;;;;;30.10;28.50;;;;;;;17.09;nan;96462.03;5007406;28;20296;-59
2023/03/10 10:53:42;;;;;;;35.50;33.57;;;;;;;17.22;nan;96470.47;5006839;28;20287;-60
2023/03/10 10:56:14;;;;;;;34.20;32.37;;;;;;;17.47;nan;96481.44;5003574;28;20288;-60
2023/03/10 10:58:42;;;;;;;31.73;30.20;;;;;;;17.28;nan;96472.53;5007041;28;20058;-60
2023/03/10 11:01:14;;;;;;;30.43;28.90;;;;;;;17.55;nan;96469.50;5008526;28;20312;-60
2023/03/10 11:04:06;;;;;;;34.40;32.63;;;;;;;17.74;nan;96472.25;5007944;28;20273;-60
2023/03/10 11:06:34;;;;;;;34.30;32.47;;;;;;;17.82;nan;96476.00;5003802;28;20335;-61
2023/03/10 11:09:07;;;;;;;36.67;34.83;;;;;;;17.64;nan;96461.00;4996260;28;20686;-59
2023/03/10 11:11:36;;;;;;;32.53;30.93;;;;;;;17.67;nan;96458.16;5002187;28;20391;-59
2023/03/10 11:14:48;;;;;;;35.17;33.37;;;;;;;17.95;nan;96461.88;5004617;28;20289;-60
2023/03/10 11:17:24;;;;;;;32.73;31.10;;;;;;;17.75;nan;96441.97;4981795;28;20311;-59
2023/03/10 11:20:23;;;;;;;29.40;27.97;;;;;;;17.67;nan;96454.75;5009622;28;20620;-59
2023/03/10 11:23:06;;;;;;;27.93;26.53;;;;;;;17.78;nan;96457.25;5009474;28;20838;-63
2023/03/10 11:25:37;;;;;;;39.27;37.30;;;;;;;17.54;nan;96462.66;5003813;28;20288;-59
2023/03/10 11:28:15;;;;;;;31.37;29.77;;;;;;;17.41;nan;96456.00;5007958;28;21052;-60
2023/03/10 11:31:11;;;;;;;31.87;30.27;;;;;;;17.14;nan;96454.69;5011959;28;20302;-58
2023/03/10 11:33:53;;;;;;;26.93;25.63;;;;;;;17.17;nan;96453.63;5011235;28;20898;-60
2023/03/10 11:37:03;;;;;;;34.27;32.47;;;;;;;16.88;nan;96443.84;5011001;28;20823;-59
2023/03/10 11:39:29;;;;;;;35.60;33.67;;;;;;;16.87;nan;96449.13;5007718;28;20289;-60
2023/03/10 11:42:07;;;;;;;35.53;33.67;;;;;;;16.72;nan;96448.56;5013920;28;20639;-60
2023/03/10 11:45:01;;;;;;;30.60;29.03;;;;;;;16.38;nan;96442.56;5012062;28;20131;-60
2023/03/10 11:47:59;;;;;;;34.10;32.23;;;;;;;16.54;nan;96438.81;5010976;28;20359;-61
2023/03/10 11:50:51;;;;;;;28.77;27.33;;;;;;;16.52;nan;96443.25;5012166;28;20316;-61